Etusivu
METAR-TAF:

METAR-TAF

Lentoasemat :

Demopolis, Alabama, Yhdysvallat

Leveyspiiri: 32-27-50N, Pituuspiiri: 087-57-15W, korkeus merenpinnasta: 34 m

Tämänhetkinen sää

Tämä raportti tehtiin 5 minuuttia sitten, kello 16.15 UTC
Tuuli 7 kn etelästä/kaakosta
Lämpötila 19°C
Kosteus 78%
Ilmanpaine 1016 hPa
Näkyvyys: 16.1 km
Hajanaisia pilviä 1500 ft:n korkeudessa
Pilvistä 4300 ft:n korkeudessa

METAR: KDYA 091615Z AUTO 16007KT 10SM SCT015 OVC043 19/15 A2999 RMK AO2 T01870147

Aika: 10:20 (16:20 UTC)


TAF: puuttuu

Säähavainnot ja -ennusteet yli 4000 lentoasemalta (METAR- ja TAF-raportit).

Käytössä olevat sääasemat on merkitty karttaan keltaisilla ja punaisilla pisteillä.

Aseta hiiri pisteen päälle nähdäksesi sääaseman nimen.

Klikkaa sitten nähdäksesi säähavainnot ja -ennusteet.

Kartan vaihtaminen: klikkaa mustalla rastilla varustettuja vihreitä pisteitä, niin voit zoomata sisään; viivalla varustettua vihreää pistettä, niin voit zoomata ulos tai vihreitä nuolia, niin pääset viereisille kartoille.


METAR-TAF: